createdAt,value
2017-08-15T00:00:16.361Z,1001.38
2017-08-15T00:01:17.789Z,1001.36
2017-08-15T00:02:19.217Z,1001.35
2017-08-15T00:03:20.648Z,1001.35
2017-08-15T00:04:22.082Z,1001.31
2017-08-15T00:05:23.502Z,1001.37
2017-08-15T00:06:24.942Z,1001.34
2017-08-15T00:07:26.366Z,1001.33
2017-08-15T00:08:27.795Z,1001.27
2017-08-15T00:09:29.226Z,1001.29
2017-08-15T00:10:30.691Z,1001.34
2017-08-15T00:11:32.115Z,1001.34
2017-08-15T00:12:33.541Z,1001.34
2017-08-15T00:13:34.966Z,1001.36
2017-08-15T00:14:36.390Z,1001.36
2017-08-15T00:15:37.833Z,1001.36
2017-08-15T00:16:39.265Z,1001.37
2017-08-15T00:17:40.687Z,1001.35
2017-08-15T00:18:42.118Z,1001.35
2017-08-15T00:19:43.551Z,1001.35
2017-08-15T00:20:44.982Z,1001.38
2017-08-15T00:21:46.416Z,1001.38
2017-08-15T00:22:47.850Z,1001.34
2017-08-15T00:23:49.279Z,1001.30
2017-08-15T00:24:50.705Z,1001.30
2017-08-15T00:25:52.134Z,1001.29
2017-08-15T00:26:53.554Z,1001.26
2017-08-15T00:27:54.981Z,1001.25
2017-08-15T00:28:56.411Z,1001.23
2017-08-15T00:29:57.841Z,1001.24
2017-08-15T00:30:59.273Z,1001.24
2017-08-15T00:32:00.701Z,1001.27
2017-08-15T00:33:02.128Z,1001.30
2017-08-15T00:34:03.553Z,1001.28
2017-08-15T00:35:04.981Z,1001.30
2017-08-15T00:36:06.402Z,1001.31
2017-08-15T00:37:07.840Z,1001.32
2017-08-15T00:38:09.260Z,1001.32
2017-08-15T00:39:10.691Z,1001.29
2017-08-15T00:40:12.121Z,1001.35
2017-08-15T00:41:13.551Z,1001.32
2017-08-15T00:42:14.978Z,1001.30
2017-08-15T00:43:16.393Z,1001.28
2017-08-15T00:44:17.819Z,1001.26
2017-08-15T00:45:19.247Z,1001.25
2017-08-15T00:46:20.670Z,1001.21
2017-08-15T00:47:22.095Z,1001.25
2017-08-15T00:48:23.523Z,1001.20
2017-08-15T00:49:24.957Z,1001.24
2017-08-15T00:50:26.380Z,1001.22
2017-08-15T00:51:27.806Z,1001.25
2017-08-15T00:52:29.247Z,1001.27
2017-08-15T00:53:30.669Z,1001.27
2017-08-15T00:54:32.106Z,1001.30
2017-08-15T00:55:33.520Z,1001.24
2017-08-15T00:56:34.948Z,1001.22
2017-08-15T00:57:36.367Z,1001.26
2017-08-15T00:58:37.798Z,1001.26
2017-08-15T00:59:39.234Z,1001.30
2017-08-15T01:00:40.654Z,1001.25
2017-08-15T01:01:42.159Z,1001.25
2017-08-15T01:02:43.585Z,1001.26
2017-08-15T01:03:45.018Z,1001.24
2017-08-15T01:04:46.444Z,1001.27
2017-08-15T01:05:47.876Z,1001.25
2017-08-15T01:06:50.003Z,1001.21
2017-08-15T01:07:51.432Z,1001.21
2017-08-15T01:08:52.868Z,1001.23
2017-08-15T01:09:54.300Z,1001.23
2017-08-15T01:10:55.724Z,1001.22
2017-08-15T01:11:57.798Z,1001.21
2017-08-15T01:12:59.220Z,1001.20
2017-08-15T01:14:00.649Z,1001.23
2017-08-15T01:15:02.077Z,1001.22
2017-08-15T01:16:03.510Z,1001.22
2017-08-15T01:17:04.941Z,1001.17
2017-08-15T01:18:06.368Z,1001.18
2017-08-15T01:19:07.791Z,1001.17
2017-08-15T01:20:09.218Z,1001.17
2017-08-15T01:21:10.635Z,1001.16
2017-08-15T01:22:12.059Z,1001.13
2017-08-15T01:23:13.489Z,1001.14
2017-08-15T01:24:14.919Z,1001.12
2017-08-15T01:25:16.405Z,1001.16
2017-08-15T01:26:17.829Z,1001.16
2017-08-15T01:27:19.252Z,1001.16
2017-08-15T01:28:20.672Z,1001.19
2017-08-15T01:29:22.098Z,1001.15
2017-08-15T01:30:23.521Z,1001.18
2017-08-15T01:31:24.948Z,1001.19
2017-08-15T01:32:26.469Z,1001.22
2017-08-15T01:33:27.896Z,1001.24
2017-08-15T01:34:29.324Z,1001.18
2017-08-15T01:35:30.825Z,1001.24
2017-08-15T01:36:32.252Z,1001.22
2017-08-15T01:37:33.670Z,1001.25
2017-08-15T01:38:35.108Z,1001.21
2017-08-15T01:39:36.608Z,1001.22
2017-08-15T01:40:38.065Z,1001.23
2017-08-15T01:41:39.492Z,1001.21
2017-08-15T01:42:40.918Z,1001.21
2017-08-15T01:43:42.352Z,1001.22
2017-08-15T01:44:43.792Z,1001.17
2017-08-15T01:45:45.220Z,1001.20
2017-08-15T01:46:46.642Z,1001.18
2017-08-15T01:47:48.164Z,1001.22
2017-08-15T01:48:49.592Z,1001.20
2017-08-15T01:49:51.017Z,1001.21
2017-08-15T01:50:52.448Z,1001.17
2017-08-15T01:51:53.948Z,1001.22
2017-08-15T01:52:55.370Z,1001.19
2017-08-15T01:53:56.803Z,1001.17
2017-08-15T01:54:58.228Z,1001.15
2017-08-15T01:55:59.653Z,1001.17
2017-08-15T01:57:01.078Z,1001.13
2017-08-15T01:58:02.594Z,1001.14
2017-08-15T01:59:04.020Z,1001.15
2017-08-15T02:00:05.445Z,1001.18
2017-08-15T02:01:06.871Z,1001.13
2017-08-15T02:02:08.308Z,1001.13
2017-08-15T02:03:09.737Z,1001.15
2017-08-15T02:04:11.164Z,1001.14
2017-08-15T02:05:12.671Z,1001.12
2017-08-15T02:06:14.126Z,1001.18
2017-08-15T02:07:15.548Z,1001.15
2017-08-15T02:08:16.969Z,1001.15
2017-08-15T02:09:18.499Z,1001.15
2017-08-15T02:10:19.925Z,1001.14
2017-08-15T02:11:21.348Z,1001.16
2017-08-15T02:12:22.777Z,1001.14
2017-08-15T02:13:24.205Z,1001.11
2017-08-15T02:14:25.626Z,1001.14
2017-08-15T02:15:27.050Z,1001.16
2017-08-15T02:16:28.478Z,1001.16
2017-08-15T02:17:29.916Z,1001.16
2017-08-15T02:18:31.342Z,1001.12
2017-08-15T02:19:32.770Z,1001.12
2017-08-15T02:20:34.192Z,1001.12
2017-08-15T02:21:35.612Z,1001.10
2017-08-15T02:22:37.037Z,1001.10
2017-08-15T02:23:38.464Z,1001.08
2017-08-15T02:24:39.886Z,1001.13
2017-08-15T02:25:41.311Z,1001.10
2017-08-15T02:26:42.738Z,1001.14
2017-08-15T02:27:44.154Z,1001.14
2017-08-15T02:28:45.577Z,1001.14
2017-08-15T02:29:47.010Z,1001.20
2017-08-15T02:30:48.444Z,1001.15
2017-08-15T02:31:49.876Z,1001.17
2017-08-15T02:32:51.299Z,1001.13
2017-08-15T02:33:52.722Z,1001.13
2017-08-15T02:34:54.178Z,1001.15
2017-08-15T02:35:55.610Z,1001.18
2017-08-15T02:36:57.042Z,1001.16
2017-08-15T02:37:58.471Z,1001.17
2017-08-15T02:38:59.906Z,1001.21
2017-08-15T02:40:01.328Z,1001.20
2017-08-15T02:41:02.754Z,1001.22
2017-08-15T02:42:04.186Z,1001.19
2017-08-15T02:43:05.620Z,1001.19
2017-08-15T02:44:07.044Z,1001.12
2017-08-15T02:45:08.472Z,1001.13
2017-08-15T02:46:09.898Z,1001.13
2017-08-15T02:47:11.332Z,1001.10
2017-08-15T02:48:12.761Z,1001.09
2017-08-15T02:49:14.190Z,1001.08
2017-08-15T02:50:15.618Z,1001.06
2017-08-15T02:51:17.037Z,1001.08
2017-08-15T02:52:18.473Z,1001.10
2017-08-15T02:53:19.901Z,1001.11
2017-08-15T02:54:21.334Z,1001.08
2017-08-15T02:55:22.765Z,1001.05
2017-08-15T02:56:24.188Z,1001.08
2017-08-15T02:57:25.620Z,1001.11
2017-08-15T02:58:27.046Z,1001.06
2017-08-15T02:59:28.479Z,1001.06
2017-08-15T03:00:29.907Z,1001.01
2017-08-15T03:01:31.341Z,1001.00
2017-08-15T03:02:32.766Z,1001.05
2017-08-15T03:03:34.208Z,1001.06
2017-08-15T03:04:35.630Z,1001.04
2017-08-15T03:05:37.064Z,1001.04
2017-08-15T03:06:38.482Z,1001.02
2017-08-15T03:07:39.913Z,1001.03
2017-08-15T03:08:41.355Z,1001.02
2017-08-15T03:09:42.776Z,1000.98
2017-08-15T03:10:44.201Z,1001.02
2017-08-15T03:11:45.629Z,1001.01
2017-08-15T03:12:47.063Z,1000.99
2017-08-15T03:13:48.503Z,1001.03
2017-08-15T03:14:49.930Z,1001.06
2017-08-15T03:15:51.349Z,1001.06
2017-08-15T03:16:52.778Z,1001.03
2017-08-15T03:17:54.201Z,1001.02
2017-08-15T03:18:55.629Z,1001.01
2017-08-15T03:19:57.057Z,1001.02
2017-08-15T03:20:58.511Z,1001.00
2017-08-15T03:22:00.016Z,1001.03
2017-08-15T03:23:01.436Z,1001.03
2017-08-15T03:24:02.873Z,1001.08
2017-08-15T03:25:04.308Z,1001.10
2017-08-15T03:26:05.736Z,1001.10
2017-08-15T03:27:07.160Z,1001.08
2017-08-15T03:28:08.717Z,1001.05
2017-08-15T03:29:10.150Z,1001.08
2017-08-15T03:30:11.571Z,1001.09
2017-08-15T03:31:12.996Z,1001.09
2017-08-15T03:32:14.421Z,1001.10
2017-08-15T03:33:15.846Z,1001.12
2017-08-15T03:34:20.942Z,1001.11
2017-08-15T03:35:22.364Z,1001.09
2017-08-15T03:36:23.788Z,1001.08
2017-08-15T03:37:25.234Z,1001.06
2017-08-15T03:38:26.640Z,1001.02
2017-08-15T03:39:28.059Z,1001.09
2017-08-15T03:40:29.485Z,1001.16
2017-08-15T03:41:30.906Z,1001.16
2017-08-15T03:42:32.326Z,1001.17
2017-08-15T03:43:33.761Z,1001.13
2017-08-15T03:44:35.186Z,1001.14
2017-08-15T03:45:36.613Z,1001.12
2017-08-15T03:46:38.030Z,1001.16
2017-08-15T03:47:39.453Z,1001.11
2017-08-15T03:48:40.889Z,1001.10
2017-08-15T03:49:42.316Z,1001.10
2017-08-15T03:50:43.739Z,1001.07
2017-08-15T03:51:45.167Z,1001.12
2017-08-15T03:52:46.593Z,1001.10
2017-08-15T03:53:48.014Z,1001.07
2017-08-15T03:54:49.439Z,1001.10
2017-08-15T03:55:50.866Z,1001.06
2017-08-15T03:56:52.293Z,1001.07
2017-08-15T03:57:53.725Z,1001.04
2017-08-15T03:58:55.156Z,1001.05
2017-08-15T03:59:56.593Z,1001.06
2017-08-15T04:00:58.019Z,1001.03
2017-08-15T04:01:59.438Z,1001.00
2017-08-15T04:03:00.879Z,1001.05
2017-08-15T04:04:02.298Z,1001.01
2017-08-15T04:05:03.717Z,1001.03
2017-08-15T04:06:05.161Z,1000.98
2017-08-15T04:07:06.585Z,1000.98
2017-08-15T04:08:08.065Z,1000.99
2017-08-15T04:09:09.489Z,1000.98
2017-08-15T04:10:10.909Z,1001.00
2017-08-15T04:11:12.350Z,1000.98
2017-08-15T04:12:13.772Z,1000.98
2017-08-15T04:13:15.198Z,1000.94
2017-08-15T04:14:16.617Z,1000.96
2017-08-15T04:15:18.083Z,1000.90
2017-08-15T04:16:19.510Z,1000.94
2017-08-15T04:17:20.934Z,1000.93
2017-08-15T04:18:22.416Z,1000.86
2017-08-15T04:19:23.840Z,1000.86
2017-08-15T04:20:25.268Z,1000.87
2017-08-15T04:21:26.689Z,1000.87
2017-08-15T04:22:28.153Z,1000.85
2017-08-15T04:23:30.197Z,1000.88
2017-08-15T04:24:31.629Z,1000.85
2017-08-15T04:25:33.051Z,1000.88
2017-08-15T04:26:34.478Z,1000.84
2017-08-15T04:27:35.906Z,1000.85
2017-08-15T04:28:37.331Z,1000.85
2017-08-15T04:29:38.757Z,1000.82
2017-08-15T04:30:40.184Z,1000.82
2017-08-15T04:31:41.609Z,1000.84
2017-08-15T04:32:43.039Z,1000.82
2017-08-15T04:33:44.472Z,1000.83
2017-08-15T04:34:45.906Z,1000.83
2017-08-15T04:35:47.331Z,1000.84
2017-08-15T04:36:48.763Z,1000.80
2017-08-15T04:37:50.188Z,1000.82
2017-08-15T04:38:51.614Z,1000.75
2017-08-15T04:39:53.042Z,1000.78
2017-08-15T04:40:54.483Z,1000.81
2017-08-15T04:41:55.886Z,1000.83
2017-08-15T04:42:57.310Z,1000.82
2017-08-15T04:43:58.740Z,1000.79
2017-08-15T04:45:00.165Z,1000.81
2017-08-15T04:46:01.595Z,1000.87
2017-08-15T04:47:03.019Z,1000.86
2017-08-15T04:48:04.452Z,1000.83
2017-08-15T04:49:05.887Z,1000.90
2017-08-15T04:50:07.318Z,1000.83
2017-08-15T04:51:08.740Z,1000.80
2017-08-15T04:52:10.176Z,1000.81
2017-08-15T04:53:11.600Z,1000.86
2017-08-15T04:54:13.023Z,1000.86
2017-08-15T04:55:14.448Z,1000.86
2017-08-15T04:56:15.879Z,1000.91
2017-08-15T04:57:19.940Z,1000.98
2017-08-15T04:58:21.358Z,1000.97
2017-08-15T04:59:22.791Z,1000.96
2017-08-15T05:00:24.217Z,1000.97
2017-08-15T05:01:25.652Z,1000.92
2017-08-15T05:02:27.078Z,1000.91
2017-08-15T05:03:28.509Z,1000.84
2017-08-15T05:04:29.937Z,1000.83
2017-08-15T05:05:31.361Z,1000.83
2017-08-15T05:06:32.797Z,1000.83
2017-08-15T05:07:34.216Z,1000.86
2017-08-15T05:08:35.647Z,1000.86
2017-08-15T05:09:37.073Z,1000.84
2017-08-15T05:10:38.502Z,1000.88
2017-08-15T05:11:39.928Z,1000.90
2017-08-15T05:12:41.377Z,1000.82
2017-08-15T05:13:42.778Z,1000.85
2017-08-15T05:14:44.199Z,1000.81
2017-08-15T05:15:45.625Z,1000.78
2017-08-15T05:16:47.062Z,1000.75
2017-08-15T05:17:48.491Z,1000.77
2017-08-15T05:18:49.924Z,1000.75
2017-08-15T05:19:51.349Z,1000.75
2017-08-15T05:20:52.773Z,1000.77
2017-08-15T05:21:54.197Z,1000.77
2017-08-15T05:22:55.625Z,1000.80
2017-08-15T05:23:57.056Z,1000.73
2017-08-15T05:24:58.486Z,1000.72
2017-08-15T05:25:59.914Z,1000.68
2017-08-15T05:27:01.338Z,1000.69
2017-08-15T05:28:02.766Z,1000.67
2017-08-15T05:29:04.206Z,1000.63
2017-08-15T05:30:05.633Z,1000.64
2017-08-15T05:31:07.059Z,1000.66
2017-08-15T05:32:08.488Z,1000.64
2017-08-15T05:33:09.914Z,1000.64
2017-08-15T05:34:11.343Z,1000.62
2017-08-15T05:35:12.770Z,1000.67
2017-08-15T05:36:14.197Z,1000.64
2017-08-15T05:37:15.624Z,1000.65
2017-08-15T05:38:17.048Z,1000.70
2017-08-15T05:39:18.474Z,1000.65
2017-08-15T05:40:19.904Z,1000.66
2017-08-15T05:41:21.328Z,1000.67
2017-08-15T05:42:22.762Z,1000.68
2017-08-15T05:43:24.199Z,1000.67
2017-08-15T05:44:25.629Z,1000.69
2017-08-15T05:45:27.056Z,1000.70
2017-08-15T05:46:28.482Z,1000.68
2017-08-15T05:47:29.922Z,1000.73
2017-08-15T05:48:31.360Z,1000.71
2017-08-15T05:49:32.802Z,1000.77
2017-08-15T05:50:34.246Z,1000.76
2017-08-15T05:51:35.673Z,1000.74
2017-08-15T05:52:37.101Z,1000.73
2017-08-15T05:53:38.554Z,1000.72
2017-08-15T05:54:39.985Z,1000.74
2017-08-15T05:55:41.412Z,1000.76
2017-08-15T05:56:42.840Z,1000.75
2017-08-15T05:57:44.275Z,1000.74
2017-08-15T05:58:45.696Z,1000.74
2017-08-15T05:59:47.128Z,1000.69
2017-08-15T06:00:48.563Z,1000.75
2017-08-15T06:01:49.987Z,1000.75
2017-08-15T06:02:51.421Z,1000.74
2017-08-15T06:03:52.845Z,1000.72
2017-08-15T06:04:54.275Z,1000.67
2017-08-15T06:05:55.709Z,1000.70
2017-08-15T06:06:57.138Z,1000.70
2017-08-15T06:07:58.572Z,1000.69
2017-08-15T06:09:00.001Z,1000.67
2017-08-15T06:10:01.431Z,1000.62
2017-08-15T06:11:02.872Z,1000.56
2017-08-15T06:12:04.296Z,1000.53
2017-08-15T06:13:05.727Z,1000.48
2017-08-15T06:14:07.151Z,1000.49
2017-08-15T06:15:08.579Z,1000.49
2017-08-15T06:16:10.006Z,1000.52
2017-08-15T06:17:11.437Z,1000.48
2017-08-15T06:18:12.868Z,1000.47
2017-08-15T06:19:14.304Z,1000.47
2017-08-15T06:20:15.729Z,1000.46
2017-08-15T06:21:17.164Z,1000.41
2017-08-15T06:22:19.889Z,1000.40
2017-08-15T06:23:21.326Z,1000.35
2017-08-15T06:24:22.741Z,1000.33
2017-08-15T06:25:24.184Z,1000.27
2017-08-15T06:26:25.613Z,1000.22
2017-08-15T06:27:27.044Z,1000.11
2017-08-15T06:28:28.475Z,1000.11
2017-08-15T06:29:29.908Z,1000.06
2017-08-15T06:30:31.344Z,1000.02
2017-08-15T06:31:32.770Z,1000.05
2017-08-15T06:32:34.211Z,1000.01
2017-08-15T06:33:35.653Z,1000.04
2017-08-15T06:34:37.080Z,1000.11
2017-08-15T06:35:38.505Z,1000.13
2017-08-15T06:36:39.932Z,1000.19
2017-08-15T06:37:41.359Z,1000.23
2017-08-15T06:38:42.786Z,1000.25
2017-08-15T06:39:44.214Z,1000.31
2017-08-15T06:40:45.648Z,1000.34
2017-08-15T06:41:47.082Z,1000.35
2017-08-15T06:42:48.510Z,1000.34
2017-08-15T06:43:49.936Z,1000.37
2017-08-15T06:44:51.371Z,1000.37
2017-08-15T06:45:52.803Z,1000.39
2017-08-15T06:46:54.228Z,1000.48
2017-08-15T06:47:55.652Z,1000.52
2017-08-15T06:48:57.083Z,1000.54
2017-08-15T06:49:58.518Z,1000.62
2017-08-15T06:50:59.946Z,1000.64
2017-08-15T06:52:01.375Z,1000.64
2017-08-15T06:53:02.806Z,1000.66
2017-08-15T06:54:04.236Z,1000.72
2017-08-15T06:55:05.665Z,1000.67
2017-08-15T06:56:07.091Z,1000.76
2017-08-15T06:57:08.524Z,1000.81
2017-08-15T06:58:09.951Z,1000.80
2017-08-15T06:59:11.384Z,1000.77
2017-08-15T07:00:12.811Z,1000.83
2017-08-15T07:01:14.244Z,1000.91
2017-08-15T07:02:15.674Z,1001.00
2017-08-15T07:03:17.101Z,1001.08
2017-08-15T07:04:18.536Z,1001.16
2017-08-15T07:05:19.973Z,1001.19
2017-08-15T07:06:21.399Z,1001.17
2017-08-15T07:07:22.827Z,1001.18
2017-08-15T07:08:24.259Z,1001.12
2017-08-15T07:09:25.696Z,1001.05
2017-08-15T07:10:27.127Z,1000.97
2017-08-15T07:11:28.564Z,1000.97
2017-08-15T07:12:29.987Z,1000.98
2017-08-15T07:13:31.425Z,1000.93
2017-08-15T07:14:32.853Z,1000.91
2017-08-15T07:15:34.295Z,1000.96
2017-08-15T07:16:35.722Z,1000.96
2017-08-15T07:17:37.154Z,1000.96
2017-08-15T07:18:38.602Z,1000.97
2017-08-15T07:19:40.037Z,1000.92
2017-08-15T07:20:41.469Z,1000.95
2017-08-15T07:21:42.903Z,1000.95
2017-08-15T07:22:44.341Z,1000.94
2017-08-15T07:23:45.768Z,1001.00
2017-08-15T07:24:47.199Z,1001.00
2017-08-15T07:25:48.641Z,1001.03
2017-08-15T07:26:50.074Z,1001.02
2017-08-15T07:27:51.503Z,1000.99
2017-08-15T07:28:52.927Z,1000.98
2017-08-15T07:29:54.370Z,1000.99
2017-08-15T07:30:55.799Z,1000.97
2017-08-15T07:31:57.225Z,1001.00
2017-08-15T07:32:58.696Z,1001.01
2017-08-15T07:34:00.143Z,1001.02
2017-08-15T07:35:01.575Z,1001.00
2017-08-15T07:36:03.002Z,1000.97
2017-08-15T07:37:04.433Z,1000.95
2017-08-15T07:38:05.862Z,1000.98
2017-08-15T07:39:07.304Z,1000.99
2017-08-15T07:40:08.751Z,1000.98
2017-08-15T07:41:10.193Z,1001.02
2017-08-15T07:42:11.628Z,1000.98
2017-08-15T07:43:13.093Z,1000.97
2017-08-15T07:44:14.498Z,1000.98
2017-08-15T07:45:15.933Z,1000.93
2017-08-15T07:46:17.383Z,1000.94
2017-08-15T07:47:18.813Z,1000.93
2017-08-15T07:48:20.343Z,1000.90
2017-08-15T07:49:21.766Z,1000.91
2017-08-15T07:50:23.201Z,1000.90
2017-08-15T07:51:24.681Z,1000.85
2017-08-15T07:52:26.118Z,1000.88
2017-08-15T07:53:27.545Z,1000.88
2017-08-15T07:54:28.981Z,1000.86
2017-08-15T07:55:30.410Z,1000.85
2017-08-15T07:56:31.848Z,1000.85
2017-08-15T07:57:33.274Z,1000.83
2017-08-15T07:58:34.717Z,1000.93
2017-08-15T07:59:36.154Z,1000.86
2017-08-15T08:00:37.583Z,1000.92
2017-08-15T08:01:39.018Z,1000.94
2017-08-15T08:02:40.447Z,1001.04
2017-08-15T08:03:41.880Z,1001.08
2017-08-15T08:04:43.320Z,1001.19
2017-08-15T08:05:44.742Z,1001.30
2017-08-15T08:06:46.204Z,1001.38
2017-08-15T08:07:47.736Z,1001.46
2017-08-15T08:08:49.135Z,1001.55
2017-08-15T08:09:50.565Z,1001.58
2017-08-15T08:10:52.000Z,1001.66
2017-08-15T08:11:53.432Z,1001.70
2017-08-15T08:12:54.872Z,1001.80
2017-08-15T08:13:56.302Z,1001.80
2017-08-15T08:14:57.734Z,1001.89
2017-08-15T08:15:59.165Z,1002.04
2017-08-15T08:17:00.604Z,1002.05
2017-08-15T08:18:02.051Z,1002.13
2017-08-15T08:19:03.498Z,1002.09
2017-08-15T08:20:04.936Z,1002.08
2017-08-15T08:21:06.366Z,1002.04
2017-08-15T08:22:07.797Z,1002.06
2017-08-15T08:23:09.232Z,1002.07
2017-08-15T08:24:10.663Z,1002.12
2017-08-15T08:25:12.096Z,1002.08
2017-08-15T08:26:13.524Z,1002.08
2017-08-15T08:27:14.961Z,1002.09
2017-08-15T08:28:16.401Z,1002.16
2017-08-15T08:29:17.836Z,1002.16
2017-08-15T08:30:19.279Z,1002.29
2017-08-15T08:31:20.711Z,1002.19
2017-08-15T08:32:22.146Z,1002.05
2017-08-15T08:33:23.583Z,1001.99
2017-08-15T08:34:25.016Z,1001.95
2017-08-15T08:35:26.445Z,1001.92
2017-08-15T08:36:27.878Z,1001.96
2017-08-15T08:37:29.304Z,1001.90
2017-08-15T08:38:30.732Z,1001.89
2017-08-15T08:39:32.173Z,1001.98
2017-08-15T08:40:33.613Z,1001.97
2017-08-15T08:41:35.049Z,1001.96
2017-08-15T08:42:36.475Z,1002.07
2017-08-15T08:43:37.911Z,1002.19
2017-08-15T08:44:39.337Z,1002.19
2017-08-15T08:45:40.762Z,1002.28
2017-08-15T08:46:42.204Z,1002.31
2017-08-15T08:47:43.631Z,1002.28
2017-08-15T08:48:45.074Z,1002.38
2017-08-15T08:49:46.515Z,1002.44
2017-08-15T08:50:47.966Z,1002.51
2017-08-15T08:51:49.395Z,1002.60
2017-08-15T08:52:50.841Z,1002.59
2017-08-15T08:53:52.275Z,1002.54
2017-08-15T08:54:53.713Z,1002.64
2017-08-15T08:55:55.146Z,1002.64
2017-08-15T08:56:56.581Z,1002.65
2017-08-15T08:57:58.013Z,1002.72
2017-08-15T08:58:59.450Z,1002.74
2017-08-15T09:00:01.955Z,1002.76
2017-08-15T09:01:03.397Z,1002.77
2017-08-15T09:02:04.829Z,1002.85
2017-08-15T09:03:06.260Z,1002.86
2017-08-15T09:04:07.693Z,1002.99
2017-08-15T09:05:09.129Z,1003.07
2017-08-15T09:06:14.041Z,1002.95
2017-08-15T09:07:15.478Z,1003.07
2017-08-15T09:08:16.930Z,1002.92
2017-08-15T09:09:18.372Z,1003.00
2017-08-15T09:10:19.808Z,1003.01
2017-08-15T09:11:21.238Z,1003.08
2017-08-15T09:12:22.721Z,1003.14
2017-08-15T09:13:24.159Z,1003.04
2017-08-15T09:14:25.604Z,1003.06
2017-08-15T09:15:27.033Z,1003.03
2017-08-15T09:16:28.462Z,1003.31
2017-08-15T09:17:29.897Z,1003.24
2017-08-15T09:18:31.332Z,1003.02
2017-08-15T09:19:32.798Z,1003.07
2017-08-15T09:20:34.316Z,1003.03
2017-08-15T09:21:35.736Z,1003.05
2017-08-15T09:22:37.174Z,1003.04
2017-08-15T09:23:38.606Z,1002.92
2017-08-15T09:24:40.044Z,1002.99
2017-08-15T09:25:41.481Z,1002.84
2017-08-15T09:26:42.908Z,1002.95
2017-08-15T09:27:44.393Z,1002.82
2017-08-15T09:28:45.834Z,1002.84
2017-08-15T09:29:47.266Z,1002.80
2017-08-15T09:30:48.700Z,1002.81
2017-08-15T09:31:50.126Z,1002.83
2017-08-15T09:32:51.575Z,1002.85
2017-08-15T09:33:53.001Z,1002.79
2017-08-15T09:34:54.429Z,1002.95
2017-08-15T09:35:55.863Z,1002.85
2017-08-15T09:36:57.294Z,1002.82
2017-08-15T09:37:58.811Z,1002.78
2017-08-15T09:39:00.261Z,1002.78
2017-08-15T09:40:01.704Z,1002.67
2017-08-15T09:41:03.132Z,1002.67
2017-08-15T09:42:04.592Z,1002.64
2017-08-15T09:43:06.073Z,1002.61
2017-08-15T09:44:07.501Z,1002.60
2017-08-15T09:45:08.936Z,1002.56
2017-08-15T09:46:10.370Z,1002.61
2017-08-15T09:47:11.825Z,1002.56
2017-08-15T09:48:13.231Z,1002.68
2017-08-15T09:49:14.676Z,1002.65
2017-08-15T09:50:16.112Z,1002.72
2017-08-15T09:51:17.550Z,1002.69
2017-08-15T09:52:18.989Z,1002.72
2017-08-15T09:53:20.417Z,1002.77
2017-08-15T09:54:21.853Z,1002.71
2017-08-15T09:55:23.286Z,1002.72
2017-08-15T09:56:24.720Z,1002.64
2017-08-15T09:57:26.258Z,1002.75
2017-08-15T09:58:27.702Z,1002.81
2017-08-15T09:59:29.136Z,1002.71
2017-08-15T10:00:30.572Z,1002.77
2017-08-15T10:01:32.011Z,1002.78
2017-08-15T10:02:33.442Z,1002.77
2017-08-15T10:03:34.888Z,1002.84
2017-08-15T10:04:36.359Z,1002.83
2017-08-15T10:05:37.791Z,1002.80
2017-08-15T10:06:39.228Z,1002.86
2017-08-15T10:07:40.650Z,1002.88
2017-08-15T10:08:42.089Z,1002.84
2017-08-15T10:09:43.517Z,1002.95
2017-08-15T10:10:44.955Z,1002.90
2017-08-15T10:11:46.404Z,1002.88
2017-08-15T10:12:47.836Z,1002.94
2017-08-15T10:13:49.268Z,1002.97
2017-08-15T10:14:50.694Z,1002.95
2017-08-15T10:15:52.142Z,1002.95
2017-08-15T10:16:53.575Z,1002.90
2017-08-15T10:17:55.005Z,1002.88
2017-08-15T10:18:56.432Z,1002.86
2017-08-15T10:19:57.858Z,1002.80
2017-08-15T10:20:59.299Z,1002.77
2017-08-15T10:22:00.737Z,1002.82
2017-08-15T10:23:02.181Z,1002.80
2017-08-15T10:24:03.615Z,1002.79
2017-08-15T10:25:05.053Z,1002.74
2017-08-15T10:26:06.480Z,1002.76
2017-08-15T10:27:07.908Z,1002.75
2017-08-15T10:28:09.344Z,1002.72
2017-08-15T10:29:10.771Z,1002.77
2017-08-15T10:30:12.207Z,1002.75
2017-08-15T10:31:13.642Z,1002.73
2017-08-15T10:32:15.072Z,1002.63
2017-08-15T10:33:16.512Z,1002.63
2017-08-15T10:34:17.944Z,1002.55
2017-08-15T10:35:19.383Z,1002.59
2017-08-15T10:36:20.813Z,1002.59
2017-08-15T10:37:22.260Z,1002.59
2017-08-15T10:38:23.691Z,1002.57
2017-08-15T10:39:25.122Z,1002.47
2017-08-15T10:40:26.561Z,1002.38
2017-08-15T10:41:27.993Z,1002.42
2017-08-15T10:42:29.441Z,1002.31
2017-08-15T10:43:30.853Z,1002.32
2017-08-15T10:44:32.279Z,1002.33
2017-08-15T10:45:33.726Z,1002.30
2017-08-15T10:46:35.178Z,1002.31
2017-08-15T10:47:36.600Z,1002.34
2017-08-15T10:48:38.052Z,1002.27
2017-08-15T10:49:39.476Z,1002.26
2017-08-15T10:50:40.908Z,1002.23
2017-08-15T10:51:42.341Z,1002.20
2017-08-15T10:52:43.775Z,1002.12
2017-08-15T10:53:45.198Z,1002.10
2017-08-15T10:54:46.631Z,1002.00
2017-08-15T10:55:48.074Z,1002.04
2017-08-15T10:56:49.502Z,1001.94
2017-08-15T10:57:50.943Z,1001.92
2017-08-15T10:58:52.373Z,1001.84
2017-08-15T10:59:53.800Z,1001.71
2017-08-15T11:00:56.138Z,1001.70
2017-08-15T11:01:57.568Z,1001.57
2017-08-15T11:02:59.001Z,1001.41
2017-08-15T11:04:00.439Z,1001.30
2017-08-15T11:06:39.419Z,1000.87
2017-08-15T11:07:40.847Z,1000.64
2017-08-15T11:08:42.284Z,1000.43
2017-08-15T11:09:43.716Z,1000.19
2017-08-15T11:10:45.145Z,999.91
2017-08-15T11:11:46.573Z,999.79
2017-08-15T11:12:48.011Z,999.59
2017-08-15T11:13:49.426Z,999.48
2017-08-15T11:14:50.860Z,999.42
2017-08-15T11:15:52.299Z,999.36
2017-08-15T11:16:53.744Z,999.35
2017-08-15T11:17:55.183Z,999.33
2017-08-15T11:18:56.618Z,999.39
2017-08-15T11:19:58.040Z,999.41
2017-08-15T11:20:59.477Z,999.51
2017-08-15T11:22:00.904Z,999.57
2017-08-15T11:23:02.332Z,999.65
2017-08-15T11:24:03.767Z,999.70
2017-08-15T11:25:05.202Z,999.88
2017-08-15T11:26:06.632Z,1000.12
2017-08-15T11:27:08.065Z,1000.43
2017-08-15T11:28:09.496Z,1000.54
2017-08-15T11:29:10.933Z,1000.69
2017-08-15T11:30:12.373Z,1000.83
2017-08-15T11:31:13.810Z,1000.84
2017-08-15T11:32:16.023Z,1000.78
2017-08-15T11:33:17.464Z,1000.68
2017-08-15T11:34:18.896Z,1000.70
2017-08-15T11:35:20.330Z,1000.72
2017-08-15T11:36:21.769Z,1000.70
2017-08-15T11:37:23.203Z,1000.68
2017-08-15T11:38:24.641Z,1000.79
2017-08-15T11:39:26.077Z,1000.67
2017-08-15T11:40:27.510Z,1000.70
2017-08-15T11:41:28.947Z,1001.10
2017-08-15T11:42:30.382Z,1001.01
2017-08-15T11:43:32.555Z,1001.14
2017-08-15T11:44:34.048Z,1000.98
2017-08-15T11:45:35.464Z,1001.00
2017-08-15T11:46:36.885Z,1001.00
2017-08-15T11:47:39.604Z,1001.19
2017-08-15T11:48:41.048Z,1001.33
2017-08-15T11:49:43.444Z,1001.32
2017-08-15T11:50:44.880Z,1001.36
2017-08-15T11:51:46.313Z,1001.52
2017-08-15T11:52:47.747Z,1001.58
2017-08-15T11:53:50.431Z,1001.32
2017-08-15T11:54:51.446Z,1001.18
2017-08-15T11:55:52.887Z,1001.37
2017-08-15T11:56:54.323Z,1001.22
2017-08-15T11:57:55.756Z,1001.26
2017-08-15T11:58:57.184Z,1001.34
2017-08-15T11:59:58.625Z,1001.12
2017-08-15T12:01:00.065Z,1001.92
2017-08-15T12:02:01.495Z,1001.88
2017-08-15T12:03:02.927Z,1001.83
2017-08-15T12:04:04.372Z,1001.69
2017-08-15T12:05:05.806Z,1001.44
2017-08-15T12:06:07.243Z,1001.88
2017-08-15T12:07:08.674Z,1001.77
2017-08-15T12:08:10.941Z,1001.43
2017-08-15T12:09:12.367Z,1001.47
2017-08-15T12:10:13.826Z,1001.74
2017-08-15T12:11:15.263Z,1001.31
2017-08-15T12:12:16.698Z,1001.35
2017-08-15T12:13:18.129Z,1001.36
2017-08-15T12:14:19.570Z,1001.33
2017-08-15T12:15:21.002Z,1001.38
2017-08-15T12:16:22.439Z,1000.99
2017-08-15T12:17:23.873Z,1001.03
2017-08-15T12:18:25.315Z,1001.26
2017-08-15T12:19:26.739Z,1001.23
2017-08-15T12:20:28.173Z,1001.30
2017-08-15T12:21:29.609Z,1001.56
2017-08-15T12:22:31.037Z,1001.70
2017-08-15T12:23:32.475Z,1001.44
2017-08-15T12:24:33.910Z,1001.48
2017-08-15T12:25:35.349Z,1001.65